Time;durP1;ratioP1;P1;durP2;ratioP2;P2;SDS_P1;SDS_P2;PMS_P1;PMS_P2;Temp;Humidity;BMP_temperature;BMP_pressure;BME280_temperature;BME280_humidity;BME280_pressure;Samples;Min_cycle;Max_cycle;Signal;HPM_P1;HPM_P2
2023/06/12 00:05:19;;;;;;;7.70;5.80;;;;;;;12.58;89.82;99355.46;269060;1272;22535;-84
2023/06/12 00:11:21;;;;;;;7.50;6.00;;;;;;;12.52;90.37;99352.11;268960;1272;22744;-84
2023/06/12 00:17:23;;;;;;;9.30;6.40;;;;;;;12.47;91.01;99349.32;268890;1271;22808;-85
2023/06/12 00:23:27;;;;;;;7.90;6.10;;;;;;;12.43;91.30;99349.20;269251;1272;22612;-85
2023/06/12 00:29:29;;;;;;;7.00;5.90;;;;;;;12.36;91.69;99343.17;268870;1262;22538;-86
2023/06/12 00:35:31;;;;;;;13.30;6.70;;;;;;;12.33;92.27;99339.61;269732;1272;22549;-84
2023/06/12 00:41:33;;;;;;;11.80;6.30;;;;;;;12.29;92.40;99341.14;269130;1272;24363;-87
2023/06/12 00:47:35;;;;;;;8.30;6.00;;;;;;;12.25;92.37;99344.39;270088;1272;23403;-85
2023/06/12 00:53:37;;;;;;;8.80;6.30;;;;;;;12.21;92.75;99345.85;269813;1272;22514;-85
2023/06/12 00:59:39;;;;;;;12.40;6.30;;;;;;;12.17;93.07;99344.79;269056;1272;22361;-86
2023/06/12 01:05:45;;;;;;;11.50;6.30;;;;;;;12.11;93.37;99345.27;269704;1275;22671;-85
2023/06/12 01:11:52;;;;;;;9.60;6.10;;;;;;;12.06;93.74;99343.49;269756;1272;23780;-85
2023/06/12 01:17:54;;;;;;;8.80;6.30;;;;;;;12.00;93.91;99338.73;270510;1272;25536;-85
2023/06/12 01:24:12;;;;;;;14.20;6.00;;;;;;;11.91;94.02;99340.74;269263;1272;22605;-85
2023/06/12 01:30:54;;;;;;;10.60;6.60;;;;;;;11.83;94.34;99343.32;270600;1272;22600;-84
2023/06/12 01:37:22;;;;;;;13.30;6.70;;;;;;;11.72;94.45;99345.70;271107;1272;22544;-85
2023/06/12 01:43:35;;;;;;;;;;;;;;;11.63;94.79;99345.40;269796;1272;24225;-84
2023/06/12 01:49:37;;;;;;;8.90;6.90;;;;;;;11.55;95.18;99345.69;269029;1272;22732;-86
2023/06/12 01:55:41;;;;;;;9.50;6.90;;;;;;;11.50;95.36;99350.63;270414;1272;23888;-85
2023/06/12 02:01:45;;;;;;;9.80;6.90;;;;;;;11.46;95.68;99352.23;269630;1272;22614;-84
2023/06/12 02:07:47;;;;;;;7.90;6.80;;;;;;;11.40;96.01;99354.41;269722;1272;22676;-85
2023/06/12 02:13:49;;;;;;;9.20;7.00;;;;;;;11.34;96.39;99351.98;270588;1270;22511;-84
2023/06/12 02:19:56;;;;;;;8.60;6.10;;;;;;;11.29;96.66;99356.38;269942;1272;22549;-87
2023/06/12 02:25:58;;;;;;;9.00;6.10;;;;;;;11.26;96.96;99357.04;270484;1270;22230;-85
2023/06/12 02:32:03;;;;;;;10.70;7.00;;;;;;;11.21;97.29;99358.45;270470;1272;22541;-85
2023/06/12 02:38:06;;;;;;;11.10;7.30;;;;;;;11.18;97.55;99366.16;270907;1272;22625;-86
2023/06/12 02:44:08;;;;;;;10.10;6.80;;;;;;;11.11;97.83;99367.31;270287;1261;22688;-85
2023/06/12 02:50:12;;;;;;;11.00;6.80;;;;;;;11.06;98.06;99369.36;269255;1272;24163;-83
2023/06/12 02:56:47;;;;;;;10.50;7.00;;;;;;;11.00;98.48;99374.28;270005;1273;22300;-84
2023/06/12 03:02:49;;;;;;;11.60;7.30;;;;;;;10.96;98.68;99384.39;270622;1272;22562;-85
2023/06/12 03:09:18;;;;;;;10.30;7.00;;;;;;;10.95;99.23;99392.75;270341;1266;23289;-83
2023/06/12 03:15:20;;;;;;;11.20;7.20;;;;;;;10.98;99.60;99399.84;269874;1264;22617;-84
2023/06/12 03:21:25;;;;;;;9.90;7.70;;;;;;;10.99;99.63;99399.69;270954;1273;22297;-86
2023/06/12 03:27:49;;;;;;;11.00;7.40;;;;;;;10.98;99.69;99401.94;269493;1272;22611;-86
2023/06/12 03:33:55;;;;;;;10.40;7.70;;;;;;;11.01;99.93;99405.59;269818;1273;22292;-84
2023/06/12 03:40:37;;;;;;;10.10;7.40;;;;;;;11.02;100.00;99405.70;272384;1262;22324;-82
2023/06/12 03:46:49;;;;;;;11.00;8.10;;;;;;;11.07;100.00;99408.91;271544;1273;22254;-86
2023/06/12 03:53:11;;;;;;;9.90;7.60;;;;;;;11.14;100.00;99405.27;272333;1272;22512;-86
2023/06/12 03:59:56;;;;;;;14.00;8.20;;;;;;;11.22;100.00;99400.42;272541;1272;22244;-85
2023/06/12 04:06:11;;;;;;;9.10;7.50;;;;;;;11.29;100.00;99390.29;271967;1272;22376;-85
2023/06/12 04:12:14;;;;;;;10.10;7.90;;;;;;;11.37;100.00;99393.45;270746;1272;22916;-85
2023/06/12 04:18:38;;;;;;;11.80;8.40;;;;;;;11.48;100.00;99399.88;270252;1272;23334;-84
2023/06/12 04:25:04;;;;;;;11.90;7.40;;;;;;;11.59;100.00;99401.84;272059;1271;22215;-84
2023/06/12 04:31:27;;;;;;;15.90;9.00;;;;;;;11.70;100.00;99408.34;272433;1273;22315;-85
2023/06/12 04:37:52;;;;;;;12.00;8.60;;;;;;;11.81;100.00;99413.50;272749;1263;23372;-86
2023/06/12 04:43:58;;;;;;;10.80;8.20;;;;;;;11.94;100.00;99412.89;272676;1276;255523;-84
2023/06/12 04:50:02;;;;;;;11.80;8.60;;;;;;;12.04;100.00;99411.13;272478;1272;22254;-85
2023/06/12 04:56:05;;;;;;;10.70;8.30;;;;;;;12.16;100.00;99417.38;272433;1270;22389;-84
2023/06/12 05:02:08;;;;;;;11.40;8.30;;;;;;;12.29;100.00;99418.33;272205;1273;22541;-86
2023/06/12 05:08:11;;;;;;;11.40;8.20;;;;;;;12.41;100.00;99421.90;270762;1272;22417;-84
2023/06/12 05:14:13;;;;;;;14.50;8.40;;;;;;;12.51;100.00;99423.34;272149;1272;22226;-85
2023/06/12 05:20:15;;;;;;;9.00;7.30;;;;;;;12.64;100.00;99423.23;272418;1272;23454;-85
2023/06/12 05:26:21;;;;;;;8.20;7.00;;;;;;;12.82;100.00;99425.67;272744;1274;22192;-86
2023/06/12 05:32:51;;;;;;;9.30;6.30;;;;;;;13.14;100.00;99426.36;272507;1272;22397;-85
2023/06/12 05:39:34;;;;;;;7.20;5.50;;;;;;;13.34;99.59;99427.30;272560;1272;22228;-86
2023/06/12 05:45:36;;;;;;;6.30;4.50;;;;;;;13.53;99.04;99432.37;272949;1268;22197;-85
2023/06/12 05:51:59;;;;;;;8.30;4.60;;;;;;;13.70;98.18;99440.80;272686;1268;22258;-84
2023/06/12 05:58:01;;;;;;;7.40;4.70;;;;;;;13.87;97.49;99439.95;272455;1272;22796;-85
2023/06/12 06:04:03;;;;;;;6.90;4.10;;;;;;;14.04;96.71;99437.59;271984;1268;22653;-86
2023/06/12 06:10:47;;;;;;;7.00;3.80;;;;;;;14.13;95.57;99440.92;271246;1271;22412;-84
2023/06/12 06:16:49;;;;;;;5.40;3.50;;;;;;;14.26;94.67;99440.13;272043;1272;22979;-86
2023/06/12 06:22:52;;;;;;;6.40;3.00;;;;;;;14.38;93.27;99443.71;271191;1271;22217;-85
2023/06/12 06:29:15;;;;;;;6.90;3.00;;;;;;;14.49;91.35;99445.70;272422;1272;22246;-84
2023/06/12 06:35:17;;;;;;;4.60;2.60;;;;;;;14.64;90.29;99448.58;272427;1272;22337;-85
2023/06/12 06:42:01;;;;;;;6.30;2.80;;;;;;;14.78;87.65;99452.07;272156;1272;22262;-86
2023/06/12 06:48:29;;;;;;;4.60;2.70;;;;;;;14.95;84.81;99452.08;271194;1273;22818;-84
2023/06/12 06:54:31;;;;;;;4.40;2.70;;;;;;;15.18;82.37;99450.66;271335;1272;22426;-86
2023/06/12 07:00:53;;;;;;;9.30;2.60;;;;;;;15.39;80.53;99455.48;272434;1272;22240;-87
2023/06/12 07:06:58;;;;;;;6.80;2.50;;;;;;;15.70;80.25;99457.04;272348;1272;22203;-85
2023/06/12 07:13:00;;;;;;;3.00;2.00;;;;;;;16.15;76.40;99462.81;272440;1272;22420;-85
2023/06/12 07:19:12;;;;;;;4.00;2.50;;;;;;;16.35;74.14;99460.12;272318;1270;23024;-87
2023/06/12 07:25:45;;;;;;;6.40;3.10;;;;;;;16.59;71.77;99454.02;271122;1271;23743;-84
2023/06/12 07:31:48;;;;;;;5.70;2.10;;;;;;;16.90;70.35;99447.98;269849;1272;23351;-84
2023/06/12 07:37:50;;;;;;;6.70;2.30;;;;;;;17.14;69.46;99449.77;271678;1267;22433;-86
2023/06/12 07:44:14;;;;;;;3.10;2.20;;;;;;;17.15;67.77;99455.21;271676;1271;22503;-85
2023/06/12 07:50:26;;;;;;;6.70;2.50;;;;;;;16.87;65.66;99456.93;269176;1272;22573;-86
2023/06/12 07:56:32;;;;;;;4.60;2.30;;;;;;;16.70;64.45;99452.30;271005;1272;22231;-85
2023/06/12 08:02:35;;;;;;;3.50;2.10;;;;;;;16.78;63.21;99452.10;272562;1272;23206;-86
2023/06/12 08:08:46;;;;;;;4.10;2.20;;;;;;;16.72;63.22;99454.98;272427;1272;22570;-86
2023/06/12 08:14:51;;;;;;;2.90;2.20;;;;;;;16.74;64.15;99458.29;272050;1263;22310;-86
2023/06/12 08:21:03;;;;;;;7.60;2.80;;;;;;;16.92;65.12;99450.40;271396;1261;22523;-86
2023/06/12 08:27:07;;;;;;;5.30;2.10;;;;;;;17.32;64.03;99453.73;270170;1272;22560;-85
2023/06/12 08:33:39;;;;;;;13.20;2.30;;;;;;;17.57;61.68;99451.31;270054;1271;23245;-85
2023/06/12 08:40:08;;;;;;;2.70;1.80;;;;;;;17.45;60.95;99448.33;271924;1265;22329;-87
2023/06/12 08:46:22;;;;;;;2.60;1.90;;;;;;;17.62;61.99;99446.84;272603;1271;22210;-89
2023/06/12 08:52:24;;;;;;;3.40;1.90;;;;;;;17.87;60.98;99444.90;271558;1270;24299;-87
2023/06/12 08:58:26;;;;;;;7.10;2.00;;;;;;;17.93;60.50;99443.73;269486;1268;22551;-84
2023/06/12 09:04:56;;;;;;;5.70;1.80;;;;;;;17.98;60.24;99438.77;271169;1262;22355;-86
2023/06/12 09:11:18;;;;;;;5.10;1.90;;;;;;;17.97;59.84;99440.84;272820;1275;22200;-85
2023/06/12 09:17:42;;;;;;;5.00;1.70;;;;;;;17.85;58.78;99444.15;272615;1259;22922;-86
2023/06/12 09:23:45;;;;;;;6.10;2.10;;;;;;;17.72;57.81;99443.73;272223;1272;22494;-85
2023/06/12 09:29:47;;;;;;;8.60;2.10;;;;;;;17.75;55.97;99446.15;272290;1265;22244;-85
2023/06/12 09:35:52;;;;;;;3.80;1.80;;;;;;;17.97;53.71;99440.85;272697;1272;22485;-86
2023/06/12 09:42:17;;;;;;;8.30;2.20;;;;;;;18.39;52.49;99430.67;272837;1275;22238;-86
2023/06/12 09:48:19;;;;;;;7.70;2.60;;;;;;;18.53;50.42;99431.98;272484;1272;23086;-87
2023/06/12 09:54:22;;;;;;;3.80;2.00;;;;;;;18.70;51.16;99434.45;272548;1272;22446;-87
2023/06/12 10:00:25;;;;;;;3.00;1.70;;;;;;;19.23;51.65;99427.44;272448;1273;22453;-87
2023/06/12 10:06:31;;;;;;;3.80;1.80;;;;;;;19.54;51.09;99415.80;272078;1272;22522;-90
2023/06/12 10:12:53;;;;;;;6.30;1.90;;;;;;;19.40;50.90;99407.32;269885;1272;22563;-87
2023/06/12 10:19:23;;;;;;;3.60;1.50;;;;;;;19.62;51.04;99399.85;271221;1272;22344;-85
2023/06/12 10:25:26;;;;;;;5.10;2.60;;;;;;;20.08;48.85;99398.31;272580;1272;22223;-85
2023/06/12 10:31:30;;;;;;;2.60;1.70;;;;;;;20.23;47.01;99399.86;272019;1272;22205;-86
2023/06/12 10:38:11;;;;;;;3.30;1.70;;;;;;;20.56;47.27;99393.30;272481;1264;22466;-87
2023/06/12 10:44:36;;;;;;;8.00;1.90;;;;;;;20.79;46.15;99388.09;272775;1274;22177;-87
2023/06/12 10:51:18;;;;;;;6.80;1.50;;;;;;;21.08;46.15;99380.86;272637;1272;23450;-86
2023/06/12 10:58:44;;;;;;;3.90;2.30;;;;;;;21.28;45.32;99375.98;270501;1271;22221;-86
2023/06/12 11:05:18;;;;;;;4.40;1.70;;;;;;;21.07;45.79;99367.98;270439;1272;23457;-88
2023/06/12 11:11:47;;;;;;;5.10;1.90;;;;;;;20.59;46.24;99362.42;272384;1272;22248;-88
2023/06/12 11:17:51;;;;;;;3.00;1.30;;;;;;;20.93;46.17;99346.96;272401;1272;22381;-87
2023/06/12 11:23:53;;;;;;;4.00;1.60;;;;;;;21.10;45.03;99343.63;272521;1260;22569;-86
2023/06/12 11:29:55;;;;;;;1.90;1.60;;;;;;;20.80;44.31;99339.27;272191;1272;25342;-84
2023/06/12 11:35:58;;;;;;;4.30;1.60;;;;;;;20.66;43.90;99331.02;270195;1271;22219;-85
2023/06/12 11:42:20;;;;;;;4.20;1.60;;;;;;;20.20;44.27;99327.33;272265;1272;23038;-88
2023/06/12 11:48:42;;;;;;;3.60;1.70;;;;;;;20.34;44.31;99319.94;272330;1271;22420;-87
2023/06/12 11:55:15;;;;;;;5.30;1.70;;;;;;;20.63;44.45;99313.53;272152;1272;23879;-84
2023/06/12 12:01:25;;;;;;;4.20;1.70;;;;;;;21.10;43.65;99307.33;272677;1274;22147;-85
2023/06/12 12:07:28;;;;;;;5.50;1.80;;;;;;;20.95;43.04;99304.15;272552;1271;22522;-85
2023/06/12 12:13:30;;;;;;;6.30;1.50;;;;;;;20.26;42.79;99312.39;272385;1273;22914;-85
2023/06/12 12:19:32;;;;;;;4.80;2.10;;;;;;;20.03;42.22;99300.66;272245;1272;22347;-86
2023/06/12 12:25:34;;;;;;;3.50;1.80;;;;;;;20.03;42.43;99299.48;272321;1273;22574;-83
2023/06/12 12:31:37;;;;;;;3.20;1.60;;;;;;;19.98;42.79;99294.76;270555;1273;22191;-86
2023/06/12 12:37:39;;;;;;;3.80;1.60;;;;;;;20.01;42.29;99300.78;272227;1273;22462;-86
2023/06/12 12:43:49;;;;;;;5.60;2.10;;;;;;;19.98;42.44;99290.69;271945;1274;22513;-87
2023/06/12 12:50:31;;;;;;;4.90;1.50;;;;;;;19.81;42.42;99283.30;272464;1262;22364;-86
2023/06/12 12:56:33;;;;;;;6.20;1.80;;;;;;;19.59;42.58;99290.27;271866;1262;25480;-83
2023/06/12 13:02:55;;;;;;;4.50;1.50;;;;;;;19.51;42.59;99288.20;272149;1262;22626;-84
2023/06/12 13:09:00;;;;;;;2.70;1.70;;;;;;;19.48;42.62;99276.67;270743;1272;22531;-84
2023/06/12 13:15:03;;;;;;;3.80;1.70;;;;;;;19.58;42.43;99266.34;271680;1273;23256;-88
2023/06/12 13:21:06;;;;;;;3.10;1.30;;;;;;;19.56;42.47;99272.55;271999;1273;22642;-85
2023/06/12 13:27:11;;;;;;;4.00;1.60;;;;;;;19.30;42.71;99276.40;271207;1269;22559;-85
2023/06/12 13:33:33;;;;;;;3.10;1.50;;;;;;;19.27;42.32;99269.41;269786;1273;24236;-86
2023/06/12 13:39:36;;;;;;;3.90;1.70;;;;;;;19.36;41.93;99258.77;270405;1267;22545;-86
2023/06/12 13:46:08;;;;;;;3.10;1.90;;;;;;;19.39;41.88;99253.31;271092;1273;22419;-85
2023/06/12 13:52:12;;;;;;;6.30;1.90;;;;;;;19.17;41.30;99257.14;272353;1273;23292;-86
2023/06/12 13:58:24;;;;;;;4.70;1.70;;;;;;;18.95;41.82;99255.27;272613;1274;22185;-86
2023/06/12 14:04:27;;;;;;;3.60;1.30;;;;;;;18.89;42.29;99253.70;272255;1273;22248;-86
2023/06/12 14:10:30;;;;;;;4.00;1.50;;;;;;;18.96;42.37;99253.09;270869;1263;22585;-85
2023/06/12 14:16:31;;;;;;;6.10;1.90;;;;;;;19.32;42.47;99251.48;269517;1273;22724;-86
2023/06/12 14:22:33;;;;;;;2.30;1.50;;;;;;;19.20;42.45;99252.33;271942;1263;22284;-85
2023/06/12 14:28:35;;;;;;;5.50;1.40;;;;;;;18.99;42.67;99249.63;269992;1273;22538;-85
2023/06/12 14:34:37;;;;;;;2.10;1.60;;;;;;;19.09;43.01;99247.08;269705;1273;22664;-86
2023/06/12 14:40:44;;;;;;;7.60;2.40;;;;;;;19.20;42.39;99241.38;269815;1270;26586;-84
2023/06/12 14:46:48;;;;;;;6.30;2.00;;;;;;;19.32;42.19;99239.81;271692;1272;22415;-87
2023/06/12 14:52:50;;;;;;;3.20;1.70;;;;;;;19.10;42.13;99238.55;269995;1267;22566;-85
2023/06/12 14:58:59;;;;;;;4.40;1.60;;;;;;;18.76;42.60;99234.60;271326;1273;22188;-86
2023/06/12 15:05:01;;;;;;;3.00;2.00;;;;;;;18.53;43.40;99232.86;271406;1272;22404;-86
2023/06/12 15:11:04;;;;;;;5.40;1.80;;;;;;;18.39;43.88;99229.06;272278;1273;23380;-87
2023/06/12 15:17:06;;;;;;;3.20;1.50;;;;;;;18.45;43.70;99224.44;272282;1273;22224;-86
2023/06/12 15:23:09;;;;;;;4.90;1.70;;;;;;;18.69;43.73;99215.23;272284;1272;23810;-87
2023/06/12 15:29:10;;;;;;;6.40;1.80;;;;;;;18.67;44.20;99225.50;272359;1272;23677;-85
2023/06/12 15:35:13;;;;;;;4.80;2.00;;;;;;;18.24;44.70;99223.42;272451;1262;22384;-85
2023/06/12 15:41:15;;;;;;;9.80;2.70;;;;;;;17.92;45.39;99225.83;271166;1273;22341;-85
2023/06/12 15:47:52;;;;;;;7.90;2.40;;;;;;;17.94;46.24;99220.17;270756;1272;22407;-85
2023/06/12 15:53:54;;;;;;;3.40;1.90;;;;;;;18.03;46.24;99213.70;271415;1272;22422;-86
2023/06/12 15:59:57;;;;;;;4.10;2.10;;;;;;;18.11;46.13;99210.16;271732;1262;22419;-85
2023/06/12 16:05:59;;;;;;;2.70;1.90;;;;;;;18.20;45.59;99208.21;272427;1274;22213;-87
2023/06/12 16:12:01;;;;;;;3.70;1.70;;;;;;;18.15;45.67;99209.40;269574;1272;23344;-87
2023/06/12 16:18:03;;;;;;;3.10;1.70;;;;;;;18.04;46.07;99211.63;272061;1273;22427;-85
2023/06/12 16:24:05;;;;;;;4.10;1.80;;;;;;;17.91;45.97;99214.77;269323;1273;23241;-84
2023/06/12 16:30:07;;;;;;;3.10;1.70;;;;;;;17.75;45.75;99219.58;271485;1273;22220;-84
2023/06/12 16:36:51;;;;;;;7.30;2.10;;;;;;;17.60;45.67;99220.42;271942;1261;22633;-86
2023/06/12 16:43:34;;;;;;;2.80;1.90;;;;;;;17.51;46.01;99220.79;271997;1272;255239;-86
2023/06/12 16:49:59;;;;;;;5.00;2.00;;;;;;;17.58;46.48;99217.91;272584;1274;22179;-86
2023/06/12 16:56:49;;;;;;;3.10;1.80;;;;;;;17.71;46.47;99218.84;272412;1274;22407;-87
2023/06/12 17:02:51;;;;;;;5.90;2.60;;;;;;;17.73;46.53;99228.70;272779;1271;22146;-86
2023/06/12 17:08:54;;;;;;;2.60;1.90;;;;;;;17.60;46.94;99232.04;272128;1274;22393;-85
2023/06/12 17:14:56;;;;;;;5.70;1.60;;;;;;;17.40;47.27;99230.00;269530;1274;25407;-87
2023/06/12 17:20:58;;;;;;;6.30;2.40;;;;;;;17.21;47.81;99227.21;271162;1274;22395;-86
2023/06/12 17:27:02;;;;;;;2.50;1.80;;;;;;;17.09;48.19;99230.91;272312;1274;23254;-85
2023/06/12 17:33:04;;;;;;;6.80;2.00;;;;;;;17.03;48.80;99226.14;272058;1275;22244;-86
2023/06/12 17:39:07;;;;;;;4.30;2.40;;;;;;;17.00;49.22;99223.42;272144;1272;22400;-85
2023/06/12 17:45:10;;;;;;;5.10;2.00;;;;;;;16.99;49.35;99225.18;272248;1274;22332;-83
2023/06/12 17:51:12;;;;;;;4.70;1.80;;;;;;;16.94;49.75;99232.11;270903;1273;25288;-85
2023/06/12 17:57:14;;;;;;;6.10;2.00;;;;;;;16.81;50.43;99233.89;269396;1273;22542;-84
2023/06/12 18:03:20;;;;;;;4.70;2.30;;;;;;;16.62;50.97;99231.00;272142;1273;22473;-84
2023/06/12 18:09:22;;;;;;;4.00;2.40;;;;;;;16.43;51.68;99233.21;270148;1272;24197;-84
2023/06/12 18:15:27;;;;;;;5.80;3.00;;;;;;;16.24;51.92;99238.00;270276;1274;22577;-84
2023/06/12 18:21:29;;;;;;;6.60;2.10;;;;;;;16.07;52.30;99237.13;270262;1272;22453;-85
2023/06/12 18:27:31;;;;;;;10.40;2.60;;;;;;;15.89;52.55;99234.40;271724;1272;23613;-86
2023/06/12 18:33:47;;;;;;;5.20;2.40;;;;;;;15.73;52.96;99239.54;272339;1273;22434;-86
2023/06/12 18:39:51;;;;;;;5.80;2.70;;;;;;;15.60;53.42;99243.00;271305;1273;22607;-86
2023/06/12 18:45:57;;;;;;;12.20;4.20;;;;;;;15.46;53.87;99243.07;269846;1272;23295;-86
2023/06/12 18:51:59;;;;;;;5.70;3.80;;;;;;;15.31;54.38;99239.56;269657;1272;23168;-85
2023/06/12 18:58:01;;;;;;;8.90;3.80;;;;;;;15.18;54.52;99244.81;271007;1273;22638;-85
2023/06/12 19:04:04;;;;;;;6.70;3.80;;;;;;;15.05;54.97;99243.27;270130;1273;22539;-85
2023/06/12 19:10:07;;;;;;;9.80;4.50;;;;;;;14.89;55.50;99250.31;271346;1273;22574;-85
2023/06/12 19:16:09;;;;;;;10.50;4.20;;;;;;;14.71;55.96;99255.56;269492;1264;22575;-85
2023/06/12 19:22:10;;;;;;;8.00;3.70;;;;;;;14.55;56.35;99258.64;269808;1273;22369;-85
2023/06/12 19:28:12;;;;;;;6.20;3.30;;;;;;;14.41;59.25;99261.16;270222;1273;22608;-85
2023/06/12 19:34:14;;;;;;;10.20;3.70;;;;;;;14.18;60.31;99268.13;269742;1273;22541;-85
2023/06/12 19:40:16;;;;;;;7.60;3.80;;;;;;;13.95;59.80;99267.38;270827;1273;22438;-85
2023/06/12 19:46:19;;;;;;;9.40;4.20;;;;;;;13.80;59.72;99267.34;272294;1273;23634;-85
2023/06/12 19:52:21;;;;;;;15.80;4.20;;;;;;;13.66;60.40;99267.38;272054;1273;22551;-85
2023/06/12 19:58:24;;;;;;;8.10;3.40;;;;;;;13.53;62.36;99266.24;270767;1272;22531;-85
2023/06/12 20:04:26;;;;;;;5.00;3.40;;;;;;;13.30;64.56;99269.36;272041;1270;22281;-85
2023/06/12 20:10:30;;;;;;;6.20;3.90;;;;;;;13.05;65.73;99273.23;272422;1273;22403;-85
2023/06/12 20:16:34;;;;;;;11.60;3.70;;;;;;;12.80;65.99;99272.20;271838;1272;22684;-84
2023/06/12 20:22:37;;;;;;;6.30;3.50;;;;;;;12.53;66.44;99267.77;271990;1273;23339;-85
2023/06/12 20:28:39;;;;;;;9.90;4.30;;;;;;;12.29;67.32;99262.09;270539;1273;22412;-85
2023/06/12 20:34:41;;;;;;;10.90;4.30;;;;;;;12.13;66.98;99256.46;272043;1273;23577;-85
2023/06/12 20:40:43;;;;;;;8.20;4.00;;;;;;;11.93;67.58;99259.01;271097;1273;23488;-85
2023/06/12 20:47:05;;;;;;;9.60;4.00;;;;;;;11.66;68.59;99256.52;272259;1267;23591;-85
2023/06/12 20:53:06;;;;;;;9.60;4.70;;;;;;;11.45;68.46;99249.54;272328;1264;22253;-85
2023/06/12 20:59:08;;;;;;;10.50;4.70;;;;;;;11.27;69.61;99251.66;272685;1263;22539;-85
2023/06/12 21:05:10;;;;;;;8.90;4.90;;;;;;;11.12;70.47;99254.06;271623;1264;22534;-85
2023/06/12 21:11:31;;;;;;;6.00;4.00;;;;;;;11.00;71.18;99253.84;271833;1273;22199;-86
2023/06/12 21:18:01;;;;;;;9.60;5.30;;;;;;;10.87;71.45;99252.16;271547;1273;22264;-85
2023/06/12 21:24:04;;;;;;;30.00;5.90;;;;;;;10.71;71.42;99255.06;271141;1265;23672;-84
2023/06/12 21:30:06;;;;;;;9.90;4.90;;;;;;;10.61;71.86;99258.42;270530;1273;22295;-85
2023/06/12 21:36:08;;;;;;;15.90;5.30;;;;;;;10.48;72.53;99253.37;270764;1268;22255;-84
2023/06/12 21:42:10;;;;;;;9.00;4.70;;;;;;;10.30;73.14;99246.91;272261;1273;23172;-85
2023/06/12 21:48:15;;;;;;;15.60;6.10;;;;;;;10.14;73.65;99245.55;272228;1274;24833;-84
2023/06/12 21:54:17;;;;;;;9.50;4.80;;;;;;;9.99;74.09;99250.58;257142;1272;20002633;-86
2023/06/12 22:00:19;;;;;;;9.10;4.70;;;;;;;9.82;74.66;99242.78;272224;1273;22258;-86
2023/06/12 22:06:21;;;;;;;9.80;4.70;;;;;;;9.69;75.11;99243.25;272373;1262;23895;-84
2023/06/12 22:12:23;;;;;;;8.90;4.50;;;;;;;9.59;75.63;99234.95;272709;1274;22184;-84
2023/06/12 22:18:45;;;;;;;7.60;4.90;;;;;;;9.46;76.42;99231.50;272285;1273;22201;-84
2023/06/12 22:24:46;;;;;;;8.70;4.20;;;;;;;9.30;76.89;99223.38;271305;1262;22621;-84
2023/06/12 22:30:49;;;;;;;9.20;4.70;;;;;;;9.18;77.01;99221.32;272315;1262;22631;-85
2023/06/12 22:36:51;;;;;;;6.60;4.30;;;;;;;9.04;77.33;99216.06;272239;1273;23018;-85
2023/06/12 22:42:52;;;;;;;9.50;3.70;;;;;;;8.95;78.19;99209.95;271757;1272;24340;-84
2023/06/12 22:48:55;;;;;;;8.60;4.40;;;;;;;8.91;78.86;99208.77;269643;1273;22585;-84
2023/06/12 22:54:57;;;;;;;8.50;3.90;;;;;;;8.86;78.91;99211.46;269531;1273;22282;-86
2023/06/12 23:01:00;;;;;;;8.10;3.70;;;;;;;8.81;79.22;99211.42;270883;1262;22227;-85
2023/06/12 23:07:05;;;;;;;6.20;4.30;;;;;;;8.77;79.56;99204.58;271903;1273;22660;-85
2023/06/12 23:13:06;;;;;;;8.60;4.80;;;;;;;8.69;79.89;99200.27;270369;1270;22910;-85
2023/06/12 23:19:12;;;;;;;7.50;4.60;;;;;;;8.60;80.11;99194.77;272454;1273;22425;-86
2023/06/12 23:25:17;;;;;;;8.00;4.40;;;;;;;8.53;80.48;99190.48;272420;1261;22968;-84
2023/06/12 23:31:56;;;;;;;9.20;4.10;;;;;;;8.42;80.83;99187.04;271959;1275;22407;-85
2023/06/12 23:38:18;;;;;;;8.00;4.10;;;;;;;8.33;80.98;99184.10;271939;1275;22342;-84
2023/06/12 23:44:21;;;;;;;6.80;4.20;;;;;;;8.20;81.51;99180.73;269187;1275;23369;-85
2023/06/12 23:50:23;;;;;;;9.10;4.70;;;;;;;8.07;81.72;99177.38;270941;1275;25387;-84
2023/06/12 23:56:25;;;;;;;7.80;4.50;;;;;;;7.97;82.04;99172.79;269959;1271;22334;-84
